Time;durP1;ratioP1;P1;durP2;ratioP2;P2;SDS_P1;SDS_P2;PMS_P1;PMS_P2;Temp;Humidity;BMP_temperature;BMP_pressure;BME280_temperature;BME280_humidity;BME280_pressure;Samples;Min_cycle;Max_cycle;Signal;HPM_P1;HPM_P2
2022/08/22 00:00:54;;;;;;;21.63;12.20;;;;;;;20.57;100.00;98039.25;4786664;30;20201;-85
2022/08/22 00:03:34;;;;;;;14.23;11.07;;;;;;;22.42;100.00;98365.41;4786218;30;20198;-87
2022/08/22 00:06:15;;;;;;;17.93;11.70;;;;;;;21.36;100.00;98192.22;4771346;30;20201;-86
2022/08/22 00:08:48;;;;;;;17.53;11.80;;;;;;;21.01;100.00;98156.78;4771194;30;20267;-86
2022/08/22 00:11:40;;;;;;;20.90;11.53;;;;;;;22.30;100.00;98365.66;4791037;29;20202;-86
2022/08/22 00:14:08;;;;;;;17.90;12.37;;;;;;;22.22;100.00;98373.50;4801799;29;20222;-87
2022/08/22 00:16:52;;;;;;;17.67;12.03;;;;;;;21.89;100.00;98290.84;4807023;29;20301;-88
2022/08/22 00:19:52;;;;;;;19.70;12.33;;;;;;;22.17;100.00;98374.47;4859046;29;20227;-88
2022/08/22 00:22:46;;;;;;;18.47;12.27;;;;;;;22.18;100.00;98381.34;4798384;29;20676;-88
2022/08/22 00:25:43;;;;;;;20.07;12.20;;;;;;;21.93;100.00;98385.25;4808420;29;20178;-88
2022/08/22 00:28:17;;;;;;;20.53;12.27;;;;;;;21.02;100.00;98242.53;4816098;29;20181;-87
2022/08/22 00:30:55;;;;;;;17.43;11.70;;;;;;;20.15;100.00;98150.44;4843514;29;20251;-88
2022/08/22 00:33:29;;;;;;;18.73;12.37;;;;;;;21.41;100.00;98365.50;4840311;29;20196;-88
2022/08/22 00:36:08;;;;;;;20.23;12.03;;;;;;;21.31;100.00;98365.69;4839976;29;20212;-87
2022/08/22 00:38:39;;;;;;;16.67;11.67;;;;;;;20.92;100.00;98279.59;4840263;29;20188;-87
2022/08/22 00:41:28;;;;;;;15.63;12.13;;;;;;;21.33;100.00;98363.91;4840422;29;20236;-86
2022/08/22 00:44:32;;;;;;;18.20;11.70;;;;;;;21.50;100.00;98365.38;4803356;29;20645;-88
2022/08/22 00:47:37;;;;;;;18.33;11.87;;;;;;;21.73;100.00;98365.81;4803215;29;20631;-87
2022/08/22 00:50:25;;;;;;;20.50;11.80;;;;;;;20.90;100.00;98211.88;4803342;29;20281;-87
2022/08/22 00:53:02;;;;;;;19.73;12.03;;;;;;;21.75;100.00;98371.78;4803669;29;20280;-86
2022/08/22 00:55:43;;;;;;;18.93;12.30;;;;;;;21.53;100.00;98352.44;4803509;29;20209;-86
2022/08/22 00:58:14;;;;;;;18.53;12.40;;;;;;;21.40;100.00;98356.06;4807976;29;20265;-86
2022/08/22 01:00:45;;;;;;;22.20;12.37;;;;;;;20.67;100.00;98252.53;4836064;29;20188;-86
2022/08/22 01:03:22;;;;;;;18.13;12.43;;;;;;;21.51;100.00;98361.91;4850927;29;20209;-87
2022/08/22 01:06:21;;;;;;;19.70;12.20;;;;;;;21.73;100.00;98358.06;4829673;29;20670;-86
2022/08/22 01:09:15;;;;;;;20.40;13.30;;;;;;;21.74;100.00;98358.94;4829593;29;20283;-86
2022/08/22 01:11:59;;;;;;;18.37;12.50;;;;;;;21.81;100.00;98357.13;4786962;30;20731;-90
2022/08/22 01:14:28;;;;;;;19.63;12.53;;;;;;;21.04;100.00;98217.66;4786508;30;20652;-87
2022/08/22 01:16:57;;;;;;;21.87;13.20;;;;;;;21.81;100.00;98370.81;4785925;30;20608;-88
2022/08/22 01:19:25;;;;;;;21.67;12.87;;;;;;;21.78;100.00;98376.06;4785856;30;20179;-88
2022/08/22 01:22:19;;;;;;;18.77;13.13;;;;;;;21.77;100.00;98380.34;4821027;29;20273;-84
2022/08/22 01:25:17;;;;;;;22.40;13.43;;;;;;;20.69;100.00;98191.63;4841937;29;20184;-86
2022/08/22 01:27:57;;;;;;;18.77;13.17;;;;;;;21.92;100.00;98383.56;4846286;29;20165;-87
2022/08/22 01:30:49;;;;;;;17.27;12.77;;;;;;;21.88;100.00;98384.50;4845665;29;20192;-87
2022/08/22 01:33:52;;;;;;;19.40;12.73;;;;;;;21.65;100.00;98380.53;4830031;29;20220;-86
2022/08/22 01:36:39;;;;;;;19.70;12.97;;;;;;;21.66;100.00;98379.69;4845548;29;20251;-86
2022/08/22 01:39:29;;;;;;;23.97;13.90;;;;;;;21.48;100.00;98374.81;4837953;29;20231;-87
2022/08/22 01:42:12;;;;;;;19.97;13.00;;;;;;;21.62;100.00;98370.28;4838941;29;20291;-88
2022/08/22 01:45:02;;;;;;;18.53;12.83;;;;;;;21.64;100.00;98373.72;4834942;29;20173;-88
2022/08/22 01:47:39;;;;;;;22.27;13.47;;;;;;;21.54;100.00;98376.44;4833340;29;20214;-87
2022/08/22 01:50:31;;;;;;;19.67;13.10;;;;;;;21.39;100.00;98367.25;4906077;29;20171;-87
2022/08/22 01:53:24;;;;;;;18.73;13.30;;;;;;;21.45;100.00;98367.13;4903408;29;20540;-87
2022/08/22 01:56:08;;;;;;;18.77;13.20;;;;;;;21.51;100.00;98361.91;4899546;29;20234;-87
2022/08/22 01:58:37;;;;;;;22.47;13.93;;;;;;;20.73;100.00;98252.47;4896886;29;20193;-87
2022/08/22 02:01:13;;;;;;;18.37;13.30;;;;;;;21.33;100.00;98377.66;4897554;29;20171;-87
2022/08/22 02:03:54;;;;;;;21.03;13.03;;;;;;;21.29;100.00;98375.97;4895856;29;20206;-88
2022/08/22 02:06:58;;;;;;;24.03;13.13;;;;;;;21.45;100.00;98371.47;4895705;29;20624;-87
2022/08/22 02:09:45;;;;;;;19.77;12.93;;;;;;;21.39;100.00;98377.56;4857385;29;20278;-88
2022/08/22 02:12:41;;;;;;;20.07;13.63;;;;;;;21.25;100.00;98370.91;4857662;29;20292;-88
2022/08/22 02:15:34;;;;;;;18.23;13.07;;;;;;;21.00;100.00;98380.69;4842536;29;20244;-88
2022/08/22 02:18:05;;;;;;;21.13;12.83;;;;;;;21.31;100.00;98379.41;4857145;29;20176;-87
2022/08/22 02:21:04;;;;;;;21.37;12.33;;;;;;;20.23;100.00;98156.31;4857438;29;20252;-87
2022/08/22 02:23:42;;;;;;;20.10;12.80;;;;;;;21.56;100.00;98383.25;4860722;29;20207;-87
2022/08/22 02:26:48;;;;;;;19.17;12.70;;;;;;;21.69;100.00;98365.91;4859722;29;20260;-88
2022/08/22 02:29:29;;;;;;;22.30;12.27;;;;;;;20.42;100.00;98164.63;4820790;29;20189;-89
2022/08/22 02:32:07;;;;;;;18.57;12.43;;;;;;;21.59;100.00;98354.88;4820616;29;20180;-88
2022/08/22 02:34:43;;;;;;;20.90;12.60;;;;;;;21.89;100.00;98391.34;4805176;29;20250;-88
2022/08/22 02:37:20;;;;;;;19.20;12.33;;;;;;;20.35;100.00;98132.19;4820789;29;20228;-89
2022/08/22 02:40:01;;;;;;;19.37;12.53;;;;;;;20.84;100.00;98217.97;4820723;29;20204;-88
2022/08/22 02:42:55;;;;;;;22.07;13.37;;;;;;;21.70;100.00;98389.03;4820575;29;20173;-88
2022/08/22 02:45:38;;;;;;;19.37;13.03;;;;;;;21.30;100.00;98312.47;4811380;29;20265;-87
2022/08/22 02:48:16;;;;;;;20.30;13.40;;;;;;;20.00;100.00;98087.28;4861369;29;20235;-88
2022/08/22 02:51:00;;;;;;;21.37;12.87;;;;;;;21.94;100.00;98392.13;4845145;29;20184;-88
2022/08/22 02:53:47;;;;;;;19.57;13.93;;;;;;;21.24;100.00;98333.16;4861034;29;20192;-86
2022/08/22 02:56:53;;;;;;;21.20;14.00;;;;;;;21.59;100.00;98388.38;4866780;29;20215;-87
2022/08/22 02:59:38;;;;;;;22.03;13.40;;;;;;;21.58;100.00;98384.13;4846082;29;20200;-86
2022/08/22 03:02:43;;;;;;;23.37;13.47;;;;;;;21.54;100.00;98387.59;4846054;29;20258;-86
2022/08/22 03:05:24;;;;;;;22.67;13.97;;;;;;;20.36;100.00;98200.72;4837234;29;20237;-88
2022/08/22 03:08:02;;;;;;;20.87;13.23;;;;;;;21.40;100.00;98376.66;4843749;29;20181;-89
2022/08/22 03:10:36;;;;;;;21.07;14.20;;;;;;;20.89;100.00;98284.78;4842344;29;20192;-88
2022/08/22 03:13:25;;;;;;;21.83;13.57;;;;;;;19.62;100.00;98055.31;4842258;29;20530;-89
2022/08/22 03:15:53;;;;;;;18.97;13.77;;;;;;;21.78;100.00;98388.94;4826849;29;20238;-89
2022/08/22 03:18:30;;;;;;;19.37;13.30;;;;;;;21.86;100.00;98397.38;4842177;29;20237;-88
2022/08/22 03:21:08;;;;;;;22.83;13.80;;;;;;;22.00;100.00;98399.75;4842000;29;20172;-87
2022/08/22 03:23:54;;;;;;;17.63;13.23;;;;;;;21.55;100.00;98313.75;4829082;29;20200;-89
2022/08/22 03:26:29;;;;;;;20.17;13.60;;;;;;;21.81;100.00;98400.91;4842116;29;20176;-88
2022/08/22 03:29:07;;;;;;;22.50;14.20;;;;;;;21.02;100.00;98257.97;4842421;29;20180;-89
2022/08/22 03:31:34;;;;;;;20.10;13.60;;;;;;;21.94;100.00;98397.28;4841367;29;20494;-89
2022/08/22 03:34:28;;;;;;;20.60;13.60;;;;;;;21.51;100.00;98328.41;4841047;29;20558;-88
2022/08/22 03:37:03;;;;;;;21.40;14.33;;;;;;;21.80;100.00;98387.19;4843838;29;20298;-87
2022/08/22 03:39:54;;;;;;;21.67;14.60;;;;;;;20.88;100.00;98249.63;4844066;29;20614;-87
2022/08/22 03:42:48;;;;;;;22.03;14.60;;;;;;;21.83;100.00;98394.84;4859786;29;20180;-88
2022/08/22 03:45:23;;;;;;;23.23;14.50;;;;;;;21.82;100.00;98403.44;4840503;29;20630;-88
2022/08/22 03:48:13;;;;;;;22.73;14.60;;;;;;;21.73;100.00;98409.59;4829501;29;20328;-88
2022/08/22 03:50:50;;;;;;;25.07;14.17;;;;;;;21.74;100.00;98405.31;4840562;29;20283;-87
2022/08/22 03:53:27;;;;;;;23.30;15.03;;;;;;;21.74;100.00;98406.16;4840964;29;20216;-87
2022/08/22 03:56:29;;;;;;;23.97;14.93;;;;;;;21.75;100.00;98407.84;4840393;29;20193;-86
2022/08/22 03:59:50;;;;;;;25.17;15.03;;;;;;;21.87;100.00;98414.56;4840938;29;20176;-87
2022/08/22 04:02:40;;;;;;;19.23;14.57;;;;;;;21.83;100.00;98422.34;4732850;30;20277;-86
2022/08/22 04:05:24;;;;;;;25.70;14.80;;;;;;;21.82;100.00;98428.34;4731069;30;20244;-86
2022/08/22 04:08:23;;;;;;;25.17;14.73;;;;;;;22.00;100.00;98428.94;4744704;30;20214;-87
2022/08/22 04:11:15;;;;;;;24.53;15.03;;;;;;;21.32;100.00;98309.00;4750084;30;20196;-86
2022/08/22 04:14:11;;;;;;;23.00;15.10;;;;;;;22.05;100.00;98427.16;4783504;30;20215;-86
2022/08/22 04:16:43;;;;;;;24.60;14.40;;;;;;;21.85;100.00;98428.31;4791188;30;20231;-85
2022/08/22 04:19:08;;;;;;;25.23;15.60;;;;;;;21.57;100.00;98425.34;4789936;30;20211;-88
2022/08/22 04:21:40;;;;;;;29.80;17.30;;;;;;;21.65;100.00;98429.50;4776683;30;20214;-87
2022/08/22 04:24:24;;;;;;;23.20;14.90;;;;;;;21.91;100.00;98436.84;4772215;30;20685;-87
2022/08/22 04:26:59;;;;;;;23.47;14.80;;;;;;;22.06;100.00;98433.13;4770886;30;20207;-89
2022/08/22 04:29:37;;;;;;;24.23;15.10;;;;;;;22.23;100.00;98437.09;4766459;30;20264;-88
2022/08/22 04:32:07;;;;;;;22.80;14.33;;;;;;;22.25;100.00;98435.34;4766316;30;20215;-86
2022/08/22 04:34:38;;;;;;;20.90;14.43;;;;;;;22.02;100.00;98387.66;4766567;30;20195;-86
2022/08/22 04:37:14;;;;;;;23.33;14.33;;;;;;;21.47;100.00;98280.44;4767316;29;20214;-86
2022/08/22 04:39:45;;;;;;;26.23;14.63;;;;;;;20.58;100.00;98138.66;4863059;29;20595;-86
2022/08/22 04:42:18;;;;;;;21.70;14.53;;;;;;;21.57;100.00;98263.91;4878129;29;20619;-88
2022/08/22 04:44:53;;;;;;;27.27;14.83;;;;;;;22.15;100.00;98320.38;4883213;29;20186;-87
2022/08/22 04:47:33;;;;;;;24.27;13.83;;;;;;;23.09;100.00;98421.63;4908453;29;20228;-86
2022/08/22 04:50:14;;;;;;;21.33;13.77;;;;;;;22.67;100.00;98340.81;4945849;29;20276;-87
2022/08/22 04:52:48;;;;;;;24.87;13.97;;;;;;;22.73;100.00;98345.00;4939561;29;20687;-87
2022/08/22 04:55:55;;;;;;;19.57;13.53;;;;;;;23.69;100.00;98440.06;4924854;29;20204;-89
2022/08/22 04:58:46;;;;;;;19.93;13.10;;;;;;;23.69;100.00;98457.31;4923260;29;20197;-87
2022/08/22 05:01:50;;;;;;;17.63;12.03;;;;;;;23.62;100.00;98458.34;4946485;29;20762;-87
2022/08/22 05:04:23;;;;;;;17.70;11.80;;;;;;;23.31;100.00;98375.50;4942050;28;20605;-88
2022/08/22 05:06:56;;;;;;;17.40;12.93;;;;;;;21.98;100.00;98174.66;4933940;29;20181;-88
2022/08/22 05:09:28;;;;;;;17.87;11.90;;;;;;;22.18;99.72;98248.13;4917701;29;20199;-87
2022/08/22 05:11:59;;;;;;;18.87;12.07;;;;;;;22.98;98.48;98304.00;4933832;29;20264;-87
2022/08/22 05:14:47;;;;;;;20.20;14.57;;;;;;;23.46;100.00;98481.09;4921252;29;20212;-88
2022/08/22 05:17:18;;;;;;;17.50;12.93;;;;;;;22.04;100.00;98263.03;4938652;29;20307;-89
2022/08/22 05:19:49;;;;;;;19.73;12.90;;;;;;;22.30;100.00;98301.19;4933707;29;20182;-85
2022/08/22 05:22:23;;;;;;;18.33;13.17;;;;;;;21.13;100.00;98051.06;4934201;29;20264;-90
2022/08/22 05:24:53;;;;;;;17.00;12.00;;;;;;;23.79;100.00;98457.03;4916160;29;20181;-86
2022/08/22 05:27:27;;;;;;;20.30;12.03;;;;;;;23.27;99.87;98392.81;4916038;29;20240;-87
2022/08/22 05:30:31;;;;;;;16.33;12.37;;;;;;;21.76;100.00;98181.97;4933169;29;20244;-90
2022/08/22 05:33:25;;;;;;;18.93;13.50;;;;;;;24.01;99.43;98494.41;4933292;29;20922;-86
2022/08/22 05:36:00;;;;;;;17.33;13.00;;;;;;;22.76;96.70;98231.38;4932457;29;20192;-86
2022/08/22 05:38:40;;;;;;;18.27;13.23;;;;;;;24.62;96.43;98504.06;4916124;29;20246;-84
2022/08/22 05:41:15;;;;;;;16.67;12.60;;;;;;;22.99;96.65;98246.31;4933164;29;20243;-86
2022/08/22 05:43:42;;;;;;;20.57;13.20;;;;;;;22.69;98.31;98326.13;4932321;29;20234;-82
2022/08/22 05:46:21;;;;;;;18.53;13.37;;;;;;;22.24;99.00;98208.47;4915521;29;20193;-85
2022/08/22 05:48:55;;;;;;;19.10;13.27;;;;;;;23.83;97.97;98461.25;4915213;29;20697;-85
2022/08/22 05:51:26;;;;;;;17.67;12.37;;;;;;;22.75;99.14;98264.09;4932675;29;20212;-86
2022/08/22 05:54:11;;;;;;;18.80;13.03;;;;;;;22.79;98.91;98299.28;4915129;29;20502;-86
2022/08/22 05:56:43;;;;;;;19.83;12.77;;;;;;;24.40;97.78;98521.06;4928415;29;20567;-84
2022/08/22 05:59:21;;;;;;;19.37;13.07;;;;;;;23.85;95.69;98402.59;4928799;29;20188;-86
2022/08/22 06:02:32;;;;;;;17.77;12.20;;;;;;;24.63;95.93;98530.81;4932095;29;20192;-86
2022/08/22 06:04:59;;;;;;;19.63;12.37;;;;;;;24.79;95.21;98526.94;4844977;29;20271;-87
2022/08/22 06:07:34;;;;;;;16.07;12.30;;;;;;;24.27;96.34;98514.50;4853334;29;20961;-86
2022/08/22 06:10:19;;;;;;;18.10;12.17;;;;;;;24.25;94.76;98435.25;4852831;29;20195;-86
2022/08/22 06:12:59;;;;;;;18.27;12.20;;;;;;;24.84;92.70;98478.47;4853801;29;20281;-85
2022/08/22 06:15:27;;;;;;;16.23;11.80;;;;;;;25.11;92.09;98513.09;4853670;29;20223;-85
2022/08/22 06:17:58;;;;;;;18.37;13.13;;;;;;;24.01;92.76;98370.28;4853243;29;20223;-86
2022/08/22 06:20:42;;;;;;;16.83;12.10;;;;;;;25.21;91.82;98504.16;4852333;29;20215;-85
2022/08/22 06:23:17;;;;;;;17.17;12.30;;;;;;;25.06;91.29;98483.88;4857680;29;20240;-85
2022/08/22 06:25:47;;;;;;;18.27;12.27;;;;;;;25.45;91.90;98521.56;4858426;29;20195;-84
2022/08/22 06:28:19;;;;;;;15.57;12.47;;;;;;;25.12;91.10;98448.28;4859699;29;20198;-86
2022/08/22 06:30:46;;;;;;;16.47;12.33;;;;;;;25.00;91.88;98523.75;4855832;29;20250;-85
2022/08/22 06:33:17;;;;;;;18.03;12.27;;;;;;;23.55;90.51;98234.56;4856964;29;20203;-85
2022/08/22 06:38:36;;;;;;;16.90;11.40;;;;;;;25.23;87.23;98396.16;4879917;29;20211;-87
2022/08/22 06:41:05;;;;;;;17.37;12.20;;;;;;;23.19;90.43;98184.69;4935249;29;20192;-87
2022/08/22 06:43:40;;;;;;;15.40;12.10;;;;;;;23.98;90.18;98261.78;4918797;29;20203;-85
2022/08/22 06:46:07;;;;;;;18.20;12.47;;;;;;;25.18;89.06;98432.56;4935503;29;20217;-86
2022/08/22 06:48:35;;;;;;;16.40;12.10;;;;;;;25.57;88.17;98458.19;4934511;29;20273;-85
2022/08/22 06:51:00;;;;;;;16.40;12.60;;;;;;;23.56;91.38;98236.28;4935245;29;20276;-87
2022/08/22 06:53:30;;;;;;;20.03;11.83;;;;;;;25.19;90.63;98537.88;4919360;29;20729;-87
2022/08/22 06:56:01;;;;;;;17.27;12.43;;;;;;;23.64;89.63;98273.09;4918729;29;20204;-87
2022/08/22 06:58:32;;;;;;;16.53;12.10;;;;;;;25.04;87.88;98405.38;4917917;29;20677;-86
2022/08/22 07:01:11;;;;;;;16.97;11.67;;;;;;;25.39;85.03;98362.81;4918582;29;20216;-86
2022/08/22 07:03:41;;;;;;;16.27;11.68;;;;;;;25.86;86.09;98535.88;4925909;29;20190;-86
2022/08/22 07:06:14;;;;;;;16.30;11.53;;;;;;;26.01;85.47;98539.75;4937636;29;20216;-87
2022/08/22 07:08:41;;;;;;;16.53;11.17;;;;;;;25.56;83.19;98389.94;4921323;29;20190;-87
2022/08/22 07:11:24;;;;;;;17.50;10.38;;;;;;;26.46;81.51;98553.84;4935303;29;20189;-87
2022/08/22 07:14:02;;;;;;;18.38;10.73;;;;;;;26.12;79.51;98439.06;4935046;29;20201;-84
2022/08/22 07:16:38;;;;;;;16.63;11.10;;;;;;;26.55;79.87;98479.97;4935825;29;20235;-85
2022/08/22 07:19:04;;;;;;;15.18;10.43;;;;;;;27.53;77.42;98547.41;4917431;29;20195;-85
2022/08/22 07:21:41;;;;;;;16.95;11.88;;;;;;;27.30;79.18;98550.00;4935062;29;20646;-86
2022/08/22 07:24:09;;;;;;;18.83;11.50;;;;;;;25.47;81.49;98392.81;4934647;29;20200;-86
2022/08/22 07:26:54;;;;;;;15.18;11.00;;;;;;;26.99;79.35;98551.16;4934528;29;20656;-87
2022/08/22 07:29:28;;;;;;;14.07;10.93;;;;;;;27.46;77.41;98545.94;4917740;29;20202;-86
2022/08/22 07:32:29;;;;;;;17.02;11.38;;;;;;;27.25;77.10;98553.66;4934390;29;20645;-87
2022/08/22 07:35:07;;;;;;;13.23;10.23;;;;;;;27.30;76.34;98552.59;4822972;29;20210;-87
2022/08/22 07:37:39;;;;;;;18.13;10.68;;;;;;;27.71;74.85;98550.19;4839045;29;20953;-87
2022/08/22 07:40:14;;;;;;;13.90;10.77;;;;;;;26.30;74.89;98306.09;4839313;29;20220;-87
2022/08/22 07:42:50;;;;;;;12.27;10.07;;;;;;;27.47;75.72;98544.16;4823077;29;20203;-87
2022/08/22 07:45:46;;;;;;;13.23;10.00;;;;;;;26.09;76.40;98315.50;4838657;29;20211;-87
2022/08/22 07:48:18;;;;;;;16.63;11.52;;;;;;;26.64;74.85;98375.78;4837861;29;20247;-86
2022/08/22 07:50:59;;;;;;;14.65;10.65;;;;;;;27.95;73.43;98546.63;4838500;29;20200;-86
2022/08/22 07:53:38;;;;;;;19.55;12.15;;;;;;;28.17;73.40;98550.09;4838226;29;20210;-86
2022/08/22 07:56:10;;;;;;;11.70;8.93;;;;;;;27.98;71.14;98424.19;4838748;29;20204;-86
2022/08/22 07:58:38;;;;;;;15.52;9.80;;;;;;;26.73;73.52;98370.22;4848231;29;20244;-86
2022/08/22 08:01:13;;;;;;;13.60;10.80;;;;;;;27.39;74.08;98531.44;4866920;29;20311;-87
2022/08/22 08:03:40;;;;;;;13.25;10.05;;;;;;;27.64;74.28;98553.94;4863123;29;20331;-85
2022/08/22 08:06:07;;;;;;;12.63;9.75;;;;;;;27.35;73.68;98464.03;4878184;29;20196;-85
2022/08/22 08:08:40;;;;;;;15.13;10.00;;;;;;;27.94;71.26;98433.03;4864590;29;20202;-85
2022/08/22 08:11:10;;;;;;;14.48;10.50;;;;;;;27.34;70.09;98317.59;4868654;29;20195;-85
2022/08/22 08:13:40;;;;;;;15.18;11.07;;;;;;;29.02;68.44;98523.00;4935137;29;20191;-86
2022/08/22 08:16:14;;;;;;;12.98;9.75;;;;;;;28.46;70.34;98541.91;4933567;29;20285;-88
2022/08/22 08:18:40;;;;;;;14.45;10.55;;;;;;;27.82;71.12;98400.59;4933689;29;20187;-87
2022/08/22 08:21:09;;;;;;;14.55;10.18;;;;;;;27.88;70.65;98444.53;4919300;29;20682;-87
2022/08/22 08:23:40;;;;;;;15.25;12.00;;;;;;;28.02;72.61;98535.06;4934711;29;20188;-84
2022/08/22 08:26:20;;;;;;;15.45;11.13;;;;;;;28.78;69.40;98508.47;4934252;29;20270;-86
2022/08/22 08:28:52;;;;;;;16.95;11.75;;;;;;;28.39;67.52;98336.53;4951430;29;20527;-84
2022/08/22 08:31:24;;;;;;;15.00;10.80;;;;;;;29.40;65.75;98435.22;4934985;29;20209;-85
2022/08/22 08:33:56;;;;;;;18.40;12.00;;;;;;;29.08;64.29;98299.41;4934262;29;20216;-86
2022/08/22 08:36:36;;;;;;;17.15;11.88;;;;;;;30.35;65.15;98545.41;4935103;29;20209;-86
2022/08/22 08:39:36;;;;;;;15.73;12.48;;;;;;;30.45;64.93;98551.91;4934081;29;20630;-86
2022/08/22 08:42:32;;;;;;;16.88;12.60;;;;;;;30.72;63.65;98547.03;4855619;29;20226;-86
2022/08/22 08:45:07;;;;;;;16.77;12.73;;;;;;;30.64;63.89;98544.81;4818257;29;20246;-85
2022/08/22 08:47:39;;;;;;;18.17;12.85;;;;;;;31.16;62.35;98548.22;4818622;29;20240;-85
2022/08/22 08:50:28;;;;;;;20.83;13.80;;;;;;;30.74;62.27;98546.03;4818904;29;20287;-85
2022/08/22 08:53:12;;;;;;;20.77;15.20;;;;;;;30.80;62.23;98544.88;4818576;29;20323;-84
2022/08/22 08:55:41;;;;;;;25.13;15.68;;;;;;;30.30;63.95;98536.94;4818574;29;20285;-85
2022/08/22 08:58:24;;;;;;;21.13;16.17;;;;;;;30.43;62.89;98526.78;4818333;29;20228;-86
2022/08/22 09:01:09;;;;;;;19.30;14.82;;;;;;;30.53;63.35;98534.06;4818122;29;20252;-85
2022/08/22 09:03:48;;;;;;;22.85;15.10;;;;;;;30.31;64.67;98534.28;4819081;29;20566;-86
2022/08/22 09:06:27;;;;;;;21.60;15.05;;;;;;;29.37;65.22;98457.09;4818795;29;20229;-84
2022/08/22 09:09:10;;;;;;;23.40;15.43;;;;;;;29.36;64.48;98314.59;4818355;29;20247;-86
2022/08/22 09:12:07;;;;;;;20.95;15.10;;;;;;;31.09;61.42;98491.94;4818148;29;20208;-85
2022/08/22 09:15:07;;;;;;;20.67;14.48;;;;;;;29.47;61.75;98320.13;4818630;29;20192;-85
2022/08/22 09:17:41;;;;;;;20.98;14.77;;;;;;;31.17;61.59;98522.91;4803003;29;20966;-84
2022/08/22 09:20:21;;;;;;;20.08;14.50;;;;;;;30.28;60.58;98335.94;4835830;29;20280;-84
2022/08/22 09:23:05;;;;;;;20.83;15.13;;;;;;;31.38;61.24;98516.50;4912326;29;20200;-84
2022/08/22 09:25:40;;;;;;;26.15;15.15;;;;;;;30.10;62.89;98383.91;4932261;29;20222;-85
2022/08/22 09:28:37;;;;;;;20.80;15.45;;;;;;;30.42;63.44;98519.84;4932193;29;20219;-84
2022/08/22 09:31:08;;;;;;;21.35;15.95;;;;;;;29.33;63.83;98338.19;4854797;29;20198;-85
2022/08/22 09:33:51;;;;;;;25.17;17.25;;;;;;;29.79;65.11;98462.91;4855503;29;20198;-86
2022/08/22 09:36:26;;;;;;;26.50;18.75;;;;;;;29.81;65.52;98474.09;4855574;29;20262;-86
2022/08/22 09:39:18;;;;;;;25.73;19.30;;;;;;;29.18;64.82;98351.94;4856122;29;20195;-87
2022/08/22 09:41:58;;;;;;;27.83;19.08;;;;;;;30.60;63.10;98436.13;4819123;29;20211;-86
2022/08/22 09:44:49;;;;;;;25.80;18.25;;;;;;;30.59;61.83;98361.31;4821570;29;20220;-85
2022/08/22 09:47:45;;;;;;;26.83;19.23;;;;;;;31.52;61.27;98506.16;4803956;29;20207;-87
2022/08/22 09:50:23;;;;;;;31.85;20.92;;;;;;;31.02;62.02;98502.78;4818063;29;20200;-88
2022/08/22 09:53:06;;;;;;;22.48;17.33;;;;;;;31.90;58.84;98504.84;4819839;29;20216;-87
2022/08/22 09:55:59;;;;;;;19.85;16.05;;;;;;;32.32;57.24;98503.34;4813315;29;20312;-86
2022/08/22 09:58:41;;;;;;;21.17;15.75;;;;;;;31.88;57.12;98506.72;4821013;29;20237;-86
2022/08/22 10:01:23;;;;;;;24.88;17.45;;;;;;;30.07;59.48;98350.13;4823550;29;20741;-88
2022/08/22 10:04:13;;;;;;;21.80;17.70;;;;;;;31.07;58.72;98501.63;4828129;29;20230;-88
2022/08/22 10:07:17;;;;;;;25.58;19.35;;;;;;;30.96;60.10;98501.34;4843225;29;20230;-89
2022/08/22 10:10:20;;;;;;;21.90;18.05;;;;;;;31.35;58.73;98504.44;4827740;29;20752;-86
2022/08/22 10:13:04;;;;;;;20.60;16.60;;;;;;;31.39;58.40;98497.28;4841151;29;20303;-87
2022/08/22 10:15:39;;;;;;;23.88;18.40;;;;;;;30.22;58.98;98322.34;4842190;29;20248;-87
2022/08/22 10:18:22;;;;;;;30.13;19.00;;;;;;;31.09;59.83;98493.69;4857876;29;20223;-87
2022/08/22 10:20:57;;;;;;;25.45;18.35;;;;;;;30.71;60.87;98490.47;4918730;29;20354;-87
2022/08/22 10:24:05;;;;;;;24.20;18.40;;;;;;;30.73;62.46;98505.16;4935744;29;20183;-87
2022/08/22 10:26:47;;;;;;;26.05;18.58;;;;;;;29.96;61.62;98398.56;4916493;29;20199;-87
2022/08/22 10:29:42;;;;;;;27.05;18.50;;;;;;;30.85;60.46;98499.25;4934715;29;20184;-85
2022/08/22 10:32:30;;;;;;;25.98;18.77;;;;;;;30.55;61.63;98487.78;4936669;29;21042;-86
2022/08/22 10:35:18;;;;;;;24.35;18.38;;;;;;;30.64;62.08;98496.94;4924578;29;20195;-86
2022/08/22 10:37:51;;;;;;;26.25;18.00;;;;;;;31.10;60.49;98484.91;4845294;29;20231;-86
2022/08/22 10:40:36;;;;;;;25.95;18.98;;;;;;;31.28;59.94;98494.41;4857929;29;20214;-86
2022/08/22 10:43:24;;;;;;;27.85;18.92;;;;;;;31.01;60.77;98491.50;4858178;29;20275;-87
2022/08/22 10:46:01;;;;;;;24.23;18.60;;;;;;;30.33;62.50;98463.66;4859277;29;20195;-87
2022/08/22 10:48:36;;;;;;;25.15;18.92;;;;;;;30.00;61.49;98408.78;4858896;29;20258;-87
2022/08/22 10:51:12;;;;;;;26.38;18.77;;;;;;;30.58;61.52;98502.47;4858232;29;20209;-87
2022/08/22 10:53:52;;;;;;;24.67;19.20;;;;;;;30.00;60.43;98414.00;4858463;29;20190;-88
2022/08/22 10:56:25;;;;;;;25.73;18.55;;;;;;;30.71;59.54;98493.91;4862548;29;20221;-87
2022/08/22 10:59:24;;;;;;;25.08;19.63;;;;;;;30.40;61.59;98488.59;4871589;29;20214;-85
2022/08/22 11:02:33;;;;;;;23.77;18.52;;;;;;;30.38;61.22;98469.56;4865793;29;20295;-86
2022/08/22 11:05:28;;;;;;;27.85;19.65;;;;;;;28.50;60.73;98136.38;4828226;29;20267;-86
2022/08/22 11:08:26;;;;;;;26.85;18.88;;;;;;;29.50;60.83;98282.59;4836963;29;20732;-88
2022/08/22 11:10:57;;;;;;;26.38;19.52;;;;;;;30.93;61.38;98476.19;4749260;30;20708;-86
2022/08/22 11:13:27;;;;;;;27.00;18.83;;;;;;;30.72;61.39;98477.31;4755365;30;20202;-88
2022/08/22 11:16:18;;;;;;;26.73;19.33;;;;;;;30.51;61.03;98473.22;4783613;29;20747;-88
2022/08/22 11:19:21;;;;;;;28.60;19.90;;;;;;;30.61;62.02;98486.63;4784768;29;20198;-87
2022/08/22 11:22:16;;;;;;;26.33;19.42;;;;;;;29.08;62.61;98231.63;4783109;29;20204;-85
2022/08/22 11:24:57;;;;;;;28.73;18.63;;;;;;;29.10;62.36;98214.16;4782404;29;20205;-86
2022/08/22 11:27:37;;;;;;;24.17;18.38;;;;;;;30.77;62.23;98466.59;4783351;29;20213;-86
2022/08/22 11:30:08;;;;;;;27.05;19.20;;;;;;;30.59;63.25;98459.75;4784201;29;20262;-86
2022/08/22 11:32:57;;;;;;;24.58;18.85;;;;;;;29.85;62.10;98317.34;4784512;29;20198;-86
2022/08/22 11:35:30;;;;;;;25.50;18.15;;;;;;;30.80;61.67;98461.22;4765652;30;20203;-87
2022/08/22 11:38:13;;;;;;;24.25;17.83;;;;;;;30.15;61.49;98373.22;4766283;30;20717;-87
2022/08/22 11:41:16;;;;;;;23.83;18.98;;;;;;;30.68;63.05;98464.50;4765767;30;20207;-89
2022/08/22 11:44:09;;;;;;;30.67;21.63;;;;;;;30.41;63.63;98455.47;4768144;30;20263;-89
2022/08/22 11:46:39;;;;;;;26.25;20.88;;;;;;;30.45;64.17;98454.38;4777929;29;20221;-89
2022/08/22 11:49:11;;;;;;;28.65;20.73;;;;;;;29.98;66.70;98462.84;4819097;29;20281;-90
2022/08/22 11:51:59;;;;;;;28.25;20.58;;;;;;;29.49;68.87;98451.31;4805671;29;20198;-88
2022/08/22 11:54:37;;;;;;;31.08;21.05;;;;;;;29.19;71.06;98457.94;4811327;29;20226;-88
2022/08/22 11:57:10;;;;;;;35.28;27.30;;;;;;;27.06;72.11;98161.09;4804236;29;20231;-88
2022/08/22 11:59:41;;;;;;;61.13;46.70;;;;;;;28.83;71.36;98452.63;4804267;29;20989;-87
2022/08/22 12:02:24;;;;;;;53.38;39.53;;;;;;;27.81;71.12;98235.00;4802824;29;20202;-86
2022/08/22 12:04:57;;;;;;;40.22;30.98;;;;;;;27.18;71.07;98138.97;4803383;29;20269;-86
2022/08/22 12:07:38;;;;;;;28.25;19.60;;;;;;;28.74;71.56;98390.50;4803352;29;20206;-87
2022/08/22 12:10:20;;;;;;;34.15;25.55;;;;;;;26.00;73.10;98042.59;4802378;29;20262;-86
2022/08/22 12:13:13;;;;;;;30.90;22.60;;;;;;;28.19;75.26;98459.75;4814239;29;20247;-89
2022/08/22 12:16:00;;;;;;;40.25;30.65;;;;;;;27.99;75.91;98452.75;4821228;29;20178;-87
2022/08/22 12:18:25;;;;;;;38.00;28.58;;;;;;;27.88;77.13;98454.94;4821411;29;20186;-88
2022/08/22 12:21:13;;;;;;;32.35;23.42;;;;;;;27.29;75.29;98323.88;4896803;29;20185;-86